Key West, FL

7:45 PM EDT on September 17, 2014 (GMT -0400)
Big Coppitt Key Gulfside | Change Station
CLOSE
Current Station
Personal Weather Station
Location: Key West, FL
Elevation: 31 ft
Nearby Weather Stations

Elev 31 ft 24.60 °N, 81.67 °W | Updated 2 minutes ago

Mostly Cloudy
Mostly Cloudy
84.0 °F
Feels Like 91 °F
N
1.7
Wind Variable Wind from WNW

Today
High -- | Low -- °F
--% Chance of Precip.
Yesterday
High -- | Low -- °F
Precip. -- in
7:13 AM 7:28 PM
Waning Crescent, 32% visible
Pressure 29.91 in
Visibility 10.0 miles
Clouds Few 3000 ft
Scattered Clouds 12000 ft
Mostly Cloudy 25000 ft
Heat Index 91 °F
Dew Point 74 °F
Humidity 72%
Rainfall 0.00 in
Snow Depth Not available.
UV 0 out of 12
Pollen 4.00 out of 12
Air Quality Not available.
Flu Activity Not available.
METAR KNQX 172253Z 33006KT 10SM FEW030 SCT120 BKN250 29/22 A2992 RMK AO2 SLP128 T02940217 $

More Conditions Fewer Conditions

Pressure 29.91 in
Visibility 10.0 miles
Clouds Few 3000 ft
Scattered Clouds 12000 ft
Mostly Cloudy 25000 ft
Heat Index 91 °F
Dew Point 74 °F
Humidity 72%
Rainfall 0.00 in
Snow Depth Not available.
UV 0 out of 12
Pollen 4.00 out of 12
Air Quality Not available.
Flu Activity Not available.
METAR KNQX 172253Z 33006KT 10SM FEW030 SCT120 BKN250 29/22 A2992 RMK AO2 SLP128 T02940217 $

More Conditions Fewer Conditions

10-Day Weather Forecast

Almanac

Astronomy

Sep. 17, 2014 Rise Set
Actual Time 7:13 AM EDT 7:28 PM EDT
Civil Twilight 6:50 AM EDT 7:50 PM EDT
Nautical Twilight 6:23 AM EDT 8:17 PM EDT
Astronomical Twilight 5:57 AM EDT 8:44 PM EDT
Moon 1:38 AM EDT 3:11 PM EDT
Length of Visible Light 13h 00m
Length of Day
12h 14m
Tomorrow will be 1m 26s shorter.
Waning Crescent, 32% of the Moon is Illuminated
Today
Waning Crescent
Sep 24
New
Oct 1
First Quarter
Oct 8
Full
Oct 15
Last Quarter

Today's Extremes

State Highs State Lows

Community

WunderPhotos

Upload Photos

1,754,198 photos uploaded!

Nearby

Snow Depth

Station Depth Elevation
No new snow has been reported.

Earthquake Activity

City Distance Mag. Time & Date
No recent earthquake activity has been reported nearby.
Minimum magnitude displayed is 2.5.

Coastal Water Temperatures

Place Temperature
Key West, FL 86.0 °F
Vaca Key, FL 88.0 °F

Nearby Weather Stations